createdAt,value
2019-03-13T00:00:41.823Z,88.80
2019-03-13T00:03:14.251Z,89.40
2019-03-13T00:05:43.475Z,90.00
2019-03-13T00:08:12.936Z,88.90
2019-03-13T00:10:42.111Z,89.90
2019-03-13T00:13:11.434Z,89.90
2019-03-13T00:15:41.187Z,89.50
2019-03-13T00:18:10.323Z,88.10
2019-03-13T00:20:39.555Z,87.60
2019-03-13T00:23:08.827Z,87.00
2019-03-13T00:25:38.285Z,87.10
2019-03-13T00:28:07.763Z,86.70
2019-03-13T00:30:37.471Z,87.30
2019-03-13T00:33:07.164Z,86.50
2019-03-13T00:35:36.861Z,86.50
2019-03-13T00:38:06.911Z,86.90
2019-03-13T00:40:36.323Z,86.80
2019-03-13T00:45:35.597Z,87.00
2019-03-13T00:48:05.013Z,87.40
2019-03-13T00:50:34.227Z,87.20
2019-03-13T00:53:03.734Z,86.40
2019-03-13T00:55:33.180Z,86.60
2019-03-13T00:58:02.423Z,87.10
2019-03-13T01:00:56.379Z,87.60
2019-03-13T01:03:47.875Z,87.60
2019-03-13T01:06:23.421Z,87.90
2019-03-13T01:08:52.887Z,87.80
2019-03-13T01:11:22.323Z,87.70
2019-03-13T01:13:51.870Z,87.30
2019-03-13T01:16:21.169Z,87.40
2019-03-13T01:18:50.275Z,87.50
2019-03-13T01:21:19.724Z,88.40
2019-03-13T01:23:48.999Z,89.40
2019-03-13T01:26:18.198Z,90.20
2019-03-13T01:28:47.671Z,90.80
2019-03-13T01:31:33.031Z,91.10
2019-03-13T01:34:19.526Z,90.20
2019-03-13T01:36:48.655Z,90.00
2019-03-13T01:39:18.247Z,89.00
2019-03-13T01:41:47.460Z,87.50
2019-03-13T01:44:16.691Z,87.20
2019-03-13T01:46:45.894Z,87.00
2019-03-13T01:49:15.117Z,87.40
2019-03-13T01:51:44.597Z,87.40
2019-03-13T01:54:13.827Z,87.50
2019-03-13T01:56:42.991Z,87.20
2019-03-13T01:59:12.501Z,87.10
2019-03-13T02:01:42.001Z,86.60
2019-03-13T02:04:11.477Z,86.10
2019-03-13T02:06:40.603Z,85.20
2019-03-13T02:09:09.814Z,85.30
2019-03-13T02:11:39.019Z,85.10
2019-03-13T02:14:08.282Z,85.00
2019-03-13T02:16:37.968Z,85.20
2019-03-13T02:19:07.318Z,85.50
2019-03-13T02:21:36.498Z,85.70
2019-03-13T02:24:05.988Z,86.00
2019-03-13T02:26:35.772Z,85.80
2019-03-13T02:29:05.223Z,86.30
2019-03-13T02:31:34.415Z,86.30
2019-03-13T02:34:03.654Z,86.30
2019-03-13T02:36:33.067Z,85.50
2019-03-13T02:39:02.307Z,85.90
2019-03-13T02:41:31.440Z,86.20
2019-03-13T02:44:00.576Z,86.90
2019-03-13T02:46:29.766Z,87.40
2019-03-13T02:48:59.220Z,87.80
2019-03-13T02:51:28.398Z,87.60
2019-03-13T02:53:57.865Z,87.70
2019-03-13T02:56:27.112Z,87.60
2019-03-13T02:58:56.305Z,87.70
2019-03-13T03:01:43.341Z,86.70
2019-03-13T03:04:12.613Z,86.30
2019-03-13T03:06:41.780Z,85.60
2019-03-13T03:09:11.414Z,85.50
2019-03-13T03:11:40.651Z,85.30
2019-03-13T03:14:09.798Z,85.20
2019-03-13T03:16:39.265Z,85.10
2019-03-13T03:19:08.544Z,85.20
2019-03-13T03:21:38.044Z,85.20
2019-03-13T03:24:07.312Z,85.40
2019-03-13T03:26:36.765Z,85.50
2019-03-13T03:29:05.932Z,85.60
2019-03-13T03:31:35.424Z,85.40
2019-03-13T03:34:05.087Z,85.00
2019-03-13T03:36:34.268Z,84.80
2019-03-13T03:39:04.915Z,84.10
2019-03-13T03:41:34.254Z,83.80
2019-03-13T03:44:03.876Z,84.10
2019-03-13T03:46:33.428Z,83.90
2019-03-13T03:49:02.897Z,84.40
2019-03-13T03:51:32.323Z,84.80
2019-03-13T03:54:01.462Z,85.30
2019-03-13T03:56:30.895Z,85.70
2019-03-13T03:59:00.013Z,86.40
2019-03-13T04:01:29.211Z,86.80
2019-03-13T04:03:58.696Z,87.00
2019-03-13T04:06:28.132Z,87.40
2019-03-13T04:08:57.331Z,87.10
2019-03-13T04:11:26.459Z,86.90
2019-03-13T04:13:55.668Z,86.90
2019-03-13T04:16:25.070Z,86.60
2019-03-13T04:18:54.334Z,86.30
2019-03-13T04:21:23.476Z,86.30
2019-03-13T04:23:52.703Z,86.00
2019-03-13T04:26:21.897Z,85.50
2019-03-13T04:28:51.403Z,85.90
2019-03-13T04:31:20.817Z,85.80
2019-03-13T04:33:50.103Z,85.90
2019-03-13T04:36:19.322Z,86.40
2019-03-13T04:38:48.478Z,86.80
2019-03-13T04:41:17.947Z,87.00
2019-03-13T04:43:47.193Z,86.70
2019-03-13T04:46:16.775Z,86.80
2019-03-13T04:48:45.947Z,87.30
2019-03-13T04:51:15.200Z,88.00
2019-03-13T04:53:44.422Z,88.60
2019-03-13T04:56:13.947Z,89.00
2019-03-13T04:58:43.447Z,89.10
2019-03-13T05:01:12.676Z,89.40
2019-03-13T05:03:42.119Z,89.70
2019-03-13T05:06:23.455Z,89.90
2019-03-13T05:09:06.414Z,89.90
2019-03-13T05:11:35.972Z,90.00
2019-03-13T05:14:05.256Z,89.80
2019-03-13T05:16:34.416Z,90.20
2019-03-13T05:19:03.571Z,90.80
2019-03-13T05:21:32.920Z,91.20
2019-03-13T05:24:02.161Z,91.30
2019-03-13T05:26:32.201Z,91.70
2019-03-13T05:29:01.330Z,91.90
2019-03-13T05:31:30.958Z,92.10
2019-03-13T05:34:00.248Z,92.20
2019-03-13T05:36:33.004Z,92.60
2019-03-13T05:39:07.108Z,92.40
2019-03-13T05:41:36.578Z,92.60
2019-03-13T05:44:05.883Z,92.60
2019-03-13T05:46:35.248Z,92.50
2019-03-13T05:49:04.582Z,92.20
2019-03-13T05:51:33.739Z,91.80
2019-03-13T05:54:04.489Z,91.30
2019-03-13T05:56:36.215Z,90.70
2019-03-13T05:59:05.780Z,90.30
2019-03-13T06:01:36.418Z,89.90
2019-03-13T06:04:05.626Z,89.40
2019-03-13T06:06:34.816Z,89.10
2019-03-13T06:09:05.705Z,88.90
2019-03-13T06:11:35.154Z,88.50
2019-03-13T06:14:04.275Z,88.30
2019-03-13T06:16:33.454Z,89.10
2019-03-13T06:19:02.654Z,89.50
2019-03-13T06:21:32.250Z,89.40
2019-03-13T06:24:01.558Z,88.50
2019-03-13T06:26:31.129Z,89.30
2019-03-13T06:29:00.439Z,88.50
2019-03-13T06:31:29.668Z,88.60
2019-03-13T06:33:58.910Z,88.80
2019-03-13T06:36:28.062Z,88.50
2019-03-13T06:38:57.499Z,88.40
2019-03-13T06:41:26.711Z,88.30
2019-03-13T06:43:56.160Z,87.80
2019-03-13T06:46:25.419Z,88.10
2019-03-13T06:48:56.631Z,87.20
2019-03-13T06:51:27.297Z,86.40
2019-03-13T06:53:56.722Z,85.80
2019-03-13T06:56:25.941Z,84.90
2019-03-13T06:59:17.862Z,84.60
2019-03-13T07:02:06.060Z,84.30
2019-03-13T07:04:54.242Z,83.30
2019-03-13T07:07:48.690Z,82.80
2019-03-13T07:13:14.470Z,81.00
2019-03-13T07:15:51.943Z,80.70
2019-03-13T07:18:35.787Z,80.90
2019-03-13T07:21:13.504Z,81.10
2019-03-13T07:23:58.056Z,81.60
2019-03-13T07:26:46.237Z,82.00
2019-03-13T07:29:33.310Z,82.00
2019-03-13T07:32:10.625Z,81.50
2019-03-13T07:34:53.235Z,81.40
2019-03-13T07:37:35.903Z,81.90
2019-03-13T07:40:22.923Z,82.60
2019-03-13T07:43:17.647Z,83.60
2019-03-13T07:46:00.078Z,83.30
2019-03-13T07:48:51.348Z,83.40
2019-03-13T07:51:35.583Z,83.40
2019-03-13T07:54:27.039Z,84.20
2019-03-13T07:57:07.372Z,83.80
2019-03-13T07:59:58.560Z,83.70
2019-03-13T08:02:46.718Z,83.00
2019-03-13T08:05:37.852Z,83.40
2019-03-13T08:08:35.100Z,82.70
2019-03-13T08:11:25.770Z,83.00
2019-03-13T08:14:26.175Z,81.90
2019-03-13T08:17:17.109Z,82.00
2019-03-13T08:20:04.235Z,81.90
2019-03-13T08:22:58.622Z,81.70
2019-03-13T08:25:39.877Z,80.50
2019-03-13T08:28:30.948Z,80.00
2019-03-13T08:31:28.840Z,79.70
2019-03-13T08:34:19.831Z,79.40
2019-03-13T08:37:17.102Z,79.60
2019-03-13T08:40:00.496Z,80.30
2019-03-13T08:42:41.858Z,80.60
2019-03-13T08:45:34.472Z,79.60
2019-03-13T08:48:22.693Z,79.30
2019-03-13T08:50:59.837Z,80.50
2019-03-13T08:54:03.036Z,83.20
2019-03-13T08:56:45.179Z,85.90
2019-03-13T08:59:33.202Z,85.30
2019-03-13T09:02:06.716Z,84.60
2019-03-13T09:04:57.576Z,84.60
2019-03-13T09:07:55.060Z,84.20
2019-03-13T09:10:42.541Z,82.40
2019-03-13T09:13:37.094Z,81.50
2019-03-13T09:16:19.851Z,81.70
2019-03-13T09:18:58.535Z,81.40
2019-03-13T09:22:02.257Z,81.00
2019-03-13T09:24:43.229Z,79.30
2019-03-13T09:27:47.127Z,80.80
2019-03-13T09:30:34.186Z,79.60
2019-03-13T09:33:18.835Z,78.90
2019-03-13T09:36:12.336Z,78.60
2019-03-13T09:39:00.011Z,78.20
2019-03-13T09:41:45.164Z,78.10
2019-03-13T09:44:48.434Z,77.00
2019-03-13T09:47:36.620Z,77.30
2019-03-13T09:53:07.254Z,74.10
2019-03-13T09:56:11.555Z,74.50
2019-03-13T09:58:58.617Z,75.10
2019-03-13T10:01:47.607Z,74.70
2019-03-13T10:04:41.583Z,75.30
2019-03-13T10:10:06.448Z,75.40
2019-03-13T10:12:54.628Z,74.70
2019-03-13T10:15:35.713Z,75.50
2019-03-13T10:18:14.536Z,76.20
2019-03-13T10:21:17.756Z,75.20
2019-03-13T10:23:55.377Z,74.70
2019-03-13T10:26:45.157Z,75.00
2019-03-13T10:29:45.704Z,75.80
2019-03-13T10:32:36.933Z,75.70
2019-03-13T10:35:25.366Z,75.10
2019-03-13T10:38:14.463Z,74.20
2019-03-13T10:40:59.498Z,74.50
2019-03-13T10:43:39.145Z,74.10
2019-03-13T10:46:16.962Z,73.90
2019-03-13T10:48:53.516Z,72.00
2019-03-13T10:51:50.768Z,71.80
2019-03-13T10:54:31.344Z,72.20
2019-03-13T10:57:25.176Z,72.40
2019-03-13T11:00:14.856Z,71.80
2019-03-13T11:03:03.054Z,72.30
2019-03-13T11:06:00.207Z,73.20
2019-03-13T11:09:03.903Z,73.00
2019-03-13T11:11:38.927Z,74.20
2019-03-13T11:14:16.150Z,73.80
2019-03-13T11:17:01.547Z,73.90
2019-03-13T11:19:36.839Z,74.10
2019-03-13T11:22:25.559Z,72.80
2019-03-13T11:25:16.778Z,72.90
2019-03-13T11:28:08.378Z,71.70
2019-03-13T11:31:02.724Z,71.10
2019-03-13T11:34:09.039Z,70.70
2019-03-13T11:37:00.365Z,70.00
2019-03-13T11:39:51.119Z,71.20
2019-03-13T11:42:42.420Z,71.50
2019-03-13T11:45:31.801Z,72.70
2019-03-13T11:48:21.578Z,73.40
2019-03-13T11:51:03.774Z,73.10
2019-03-13T11:54:01.255Z,71.80
2019-03-13T11:56:56.775Z,72.00
2019-03-13T11:59:48.385Z,71.90
2019-03-13T12:02:48.814Z,71.90
2019-03-13T12:05:27.377Z,71.80
2019-03-13T12:08:24.977Z,70.90
2019-03-13T12:11:07.382Z,69.40
2019-03-13T12:13:58.592Z,66.10
2019-03-13T12:16:37.858Z,62.40
2019-03-13T12:19:30.871Z,62.40
2019-03-13T12:22:19.059Z,63.40
2019-03-13T12:25:00.390Z,64.80
2019-03-13T12:27:51.646Z,66.20
2019-03-13T12:30:51.858Z,67.60
2019-03-13T12:33:39.362Z,68.30
2019-03-13T12:36:25.820Z,67.70
2019-03-13T12:39:08.875Z,66.20
2019-03-13T12:41:59.446Z,68.20
2019-03-13T12:44:35.145Z,70.20
2019-03-13T12:47:23.687Z,71.10
2019-03-13T12:50:13.611Z,71.80
2019-03-13T12:53:00.894Z,72.10
2019-03-13T12:55:58.391Z,71.60
2019-03-13T12:58:35.995Z,72.00
2019-03-13T13:01:17.875Z,71.20
2019-03-13T13:04:18.149Z,70.10
2019-03-13T13:06:54.107Z,69.30
2019-03-13T13:09:42.632Z,68.20
2019-03-13T13:12:29.660Z,68.30
2019-03-13T13:15:18.181Z,66.40
2019-03-13T13:18:09.102Z,64.90
2019-03-13T13:20:38.563Z,63.90
2019-03-13T13:23:07.727Z,64.10
2019-03-13T13:25:37.434Z,62.50
2019-03-13T13:28:06.952Z,58.90
2019-03-13T13:30:36.504Z,58.40
2019-03-13T13:33:05.750Z,57.30
2019-03-13T13:35:35.235Z,55.70
2019-03-13T13:38:04.752Z,52.90
2019-03-13T13:40:34.262Z,56.10
2019-03-13T13:43:03.535Z,60.30
2019-03-13T13:46:02.913Z,64.10
2019-03-13T13:48:32.021Z,66.60
2019-03-13T13:51:01.230Z,69.10
2019-03-13T13:53:30.444Z,71.00
2019-03-13T13:55:59.675Z,72.00
2019-03-13T13:58:28.845Z,73.20
2019-03-13T14:00:58.008Z,73.80
2019-03-13T14:03:27.289Z,74.20
2019-03-13T14:05:56.498Z,74.80
2019-03-13T14:08:25.671Z,75.40
2019-03-13T14:10:54.876Z,75.70
2019-03-13T14:13:24.043Z,77.00
2019-03-13T14:15:53.251Z,77.50
2019-03-13T14:18:22.742Z,80.00
2019-03-13T14:20:52.175Z,79.40
2019-03-13T14:23:22.343Z,81.00
2019-03-13T14:25:51.521Z,79.10
2019-03-13T14:28:20.718Z,78.30
2019-03-13T14:30:50.253Z,78.80
2019-03-13T14:33:19.479Z,78.30
2019-03-13T14:35:48.564Z,78.70
2019-03-13T14:38:17.791Z,78.80
2019-03-13T14:40:47.387Z,78.80
2019-03-13T14:43:16.721Z,78.90
2019-03-13T14:45:46.386Z,78.40
2019-03-13T14:48:15.574Z,78.20
2019-03-13T14:50:45.435Z,78.20
2019-03-13T14:53:14.702Z,78.20
2019-03-13T14:55:44.094Z,77.60
2019-03-13T14:58:13.537Z,77.70
2019-03-13T15:00:42.868Z,78.00
2019-03-13T15:03:12.675Z,77.10
2019-03-13T15:05:42.102Z,77.20
2019-03-13T15:08:11.964Z,76.80
2019-03-13T15:13:10.037Z,77.60
2019-03-13T15:15:39.691Z,77.50
2019-03-13T15:18:09.458Z,78.20
2019-03-13T15:20:38.818Z,78.90
2019-03-13T15:23:10.246Z,79.70
2019-03-13T15:25:39.415Z,80.30
2019-03-13T15:28:08.865Z,80.40
2019-03-13T15:30:38.057Z,79.40
2019-03-13T15:33:09.125Z,79.30
2019-03-13T15:35:38.425Z,79.80
2019-03-13T15:38:07.621Z,80.40
2019-03-13T15:40:36.942Z,80.40
2019-03-13T15:43:06.202Z,80.40
2019-03-13T15:45:35.435Z,79.50
2019-03-13T15:48:04.847Z,79.40
2019-03-13T15:50:34.232Z,79.70
2019-03-13T15:53:03.497Z,80.30
2019-03-13T15:55:32.786Z,81.00
2019-03-13T15:58:02.212Z,84.00
2019-03-13T16:00:31.904Z,87.90
2019-03-13T16:03:01.588Z,89.50
2019-03-13T16:05:31.234Z,90.00
2019-03-13T16:08:00.420Z,91.40
2019-03-13T16:10:29.649Z,89.60
2019-03-13T16:13:01.649Z,89.90
2019-03-13T16:15:36.631Z,90.40
2019-03-13T16:18:06.606Z,90.00
2019-03-13T16:20:37.232Z,90.10
2019-03-13T16:23:07.064Z,89.90
2019-03-13T16:25:36.501Z,89.70
2019-03-13T16:28:05.683Z,89.80
2019-03-13T16:30:38.705Z,90.50
2019-03-13T16:33:08.093Z,90.50
2019-03-13T16:35:39.453Z,90.20
2019-03-13T16:38:08.966Z,89.80
2019-03-13T16:40:38.282Z,90.40
2019-03-13T16:43:07.817Z,91.60
2019-03-13T16:45:37.395Z,93.50
2019-03-13T16:48:06.651Z,96.40
2019-03-13T16:50:36.010Z,96.00
2019-03-13T16:53:05.404Z,96.90
2019-03-13T16:55:34.646Z,98.70
2019-03-13T16:58:04.196Z,98.10
2019-03-13T17:00:33.594Z,98.30
2019-03-13T17:03:02.852Z,99.80
2019-03-13T17:05:32.659Z,99.70
2019-03-13T17:08:01.948Z,99.80
2019-03-13T17:10:31.208Z,99.80
2019-03-13T17:13:00.344Z,99.80
2019-03-13T17:15:29.875Z,99.80
2019-03-13T17:17:59.071Z,99.80
2019-03-13T17:20:28.310Z,99.40
2019-03-13T17:22:58.216Z,99.20
2019-03-13T17:25:27.374Z,99.30
2019-03-13T17:27:57.128Z,99.00
2019-03-13T17:30:26.801Z,98.70
2019-03-13T17:32:56.404Z,98.40
2019-03-13T17:35:28.207Z,98.20
2019-03-13T17:37:57.882Z,98.30
2019-03-13T17:40:31.796Z,98.80
2019-03-13T17:43:01.150Z,99.10
2019-03-13T17:45:30.570Z,98.90
2019-03-13T17:48:00.081Z,99.10
2019-03-13T17:50:29.239Z,99.30
2019-03-13T17:52:58.719Z,99.00
2019-03-13T17:55:28.334Z,98.70
2019-03-13T17:57:58.545Z,98.50
2019-03-13T18:00:31.594Z,98.40
2019-03-13T18:03:00.782Z,98.40
2019-03-13T18:05:30.051Z,98.80
2019-03-13T18:07:59.468Z,99.40
2019-03-13T18:10:28.829Z,99.80
2019-03-13T18:12:57.954Z,99.80
2019-03-13T18:15:27.076Z,99.80
2019-03-13T18:20:25.122Z,99.80
2019-03-13T18:22:54.419Z,99.80
2019-03-13T18:25:26.596Z,99.80
2019-03-13T18:27:55.835Z,99.80
2019-03-13T18:30:25.166Z,99.80
2019-03-13T18:32:54.299Z,99.80
2019-03-13T18:35:26.710Z,99.80
2019-03-13T18:37:55.861Z,99.80
2019-03-13T18:40:25.509Z,99.80
2019-03-13T18:42:55.290Z,99.80
2019-03-13T18:45:25.652Z,99.80
2019-03-13T18:47:54.919Z,99.80
2019-03-13T18:50:24.521Z,99.80
2019-03-13T18:52:53.966Z,99.80
2019-03-13T18:55:25.860Z,99.80
2019-03-13T18:57:55.087Z,99.80
2019-03-13T19:00:36.360Z,99.80
2019-03-13T19:03:07.569Z,99.80
2019-03-13T19:05:37.188Z,99.80
2019-03-13T19:08:06.950Z,99.80
2019-03-13T19:10:36.163Z,99.80
2019-03-13T19:13:05.651Z,99.80
2019-03-13T19:15:35.049Z,99.80
2019-03-13T19:18:04.416Z,99.80
2019-03-13T19:20:34.030Z,99.80
2019-03-13T19:23:03.214Z,99.80
2019-03-13T19:25:33.123Z,99.80
2019-03-13T19:28:02.272Z,99.80
2019-03-13T19:30:31.673Z,99.80
2019-03-13T19:33:01.249Z,99.80
2019-03-13T19:35:30.442Z,99.80
2019-03-13T19:38:00.266Z,99.80
2019-03-13T19:40:29.585Z,99.80
2019-03-13T19:42:58.847Z,99.80
2019-03-13T19:45:30.765Z,99.80
2019-03-13T19:48:01.475Z,99.80
2019-03-13T19:50:31.272Z,99.80
2019-03-13T19:53:00.447Z,99.80
2019-03-13T19:55:29.699Z,99.80
2019-03-13T19:57:59.354Z,99.80
2019-03-13T20:00:28.692Z,99.80
2019-03-13T20:03:00.297Z,99.80
2019-03-13T20:05:29.195Z,99.80
2019-03-13T20:07:58.812Z,99.80
2019-03-13T20:10:28.371Z,99.80
2019-03-13T20:12:57.654Z,99.80
2019-03-13T20:15:26.961Z,99.80
2019-03-13T20:17:56.556Z,99.80
2019-03-13T20:20:25.749Z,99.80
2019-03-13T20:22:57.163Z,99.80
2019-03-13T20:25:26.962Z,99.80
2019-03-13T20:27:56.589Z,99.80
2019-03-13T20:30:28.222Z,99.80
2019-03-13T20:32:58.543Z,99.80
2019-03-13T20:35:27.808Z,99.80
2019-03-13T20:37:57.066Z,99.80
2019-03-13T20:40:26.282Z,99.80
2019-03-13T20:42:55.580Z,99.80
2019-03-13T20:45:25.306Z,99.80
2019-03-13T20:47:55.585Z,99.80
2019-03-13T20:50:36.117Z,99.80
2019-03-13T20:52:56.188Z,99.80
2019-03-13T20:55:26.801Z,99.80
2019-03-13T20:57:56.646Z,99.80
2019-03-13T21:00:25.858Z,99.80
2019-03-13T21:02:55.656Z,99.80
2019-03-13T21:05:27.388Z,99.80
2019-03-13T21:07:57.783Z,99.80
2019-03-13T21:10:27.142Z,99.80
2019-03-13T21:12:56.652Z,99.80
2019-03-13T21:15:28.769Z,99.80
2019-03-13T21:17:58.023Z,99.80
2019-03-13T21:20:27.395Z,99.80
2019-03-13T21:22:58.309Z,99.80
2019-03-13T21:25:27.885Z,99.80
2019-03-13T21:27:57.096Z,99.80
2019-03-13T21:30:26.569Z,99.80
2019-03-13T21:32:55.843Z,99.80
2019-03-13T21:35:25.355Z,99.80
2019-03-13T21:37:54.511Z,99.80
2019-03-13T21:40:23.854Z,99.80
2019-03-13T21:42:54.915Z,99.80
2019-03-13T21:45:24.166Z,99.80
2019-03-13T21:47:53.594Z,99.80
2019-03-13T21:50:22.908Z,99.80
2019-03-13T21:52:52.308Z,99.80
2019-03-13T21:55:22.010Z,99.80
2019-03-13T21:57:52.564Z,99.80
2019-03-13T22:00:23.588Z,99.80
2019-03-13T22:02:52.980Z,99.80
2019-03-13T22:05:26.092Z,99.80
2019-03-13T22:07:54.011Z,99.80
2019-03-13T22:10:23.542Z,99.80
2019-03-13T22:12:53.502Z,99.80
2019-03-13T22:15:23.127Z,99.80
2019-03-13T22:17:52.375Z,99.80
2019-03-13T22:20:21.749Z,99.80
2019-03-13T22:22:51.030Z,99.80
2019-03-13T22:25:25.578Z,99.80
2019-03-13T22:28:00.104Z,99.80
2019-03-13T22:30:32.710Z,99.80
2019-03-13T22:33:04.851Z,99.80
2019-03-13T22:35:34.564Z,99.80
2019-03-13T22:38:04.269Z,99.80
2019-03-13T22:40:33.435Z,99.80
2019-03-13T22:43:03.340Z,99.80
2019-03-13T22:45:32.494Z,99.40
2019-03-13T22:48:01.726Z,98.50
2019-03-13T22:50:31.129Z,98.50
2019-03-13T22:53:01.369Z,98.90
2019-03-13T22:55:30.666Z,99.30
2019-03-13T22:58:01.599Z,99.80
2019-03-13T23:00:53.476Z,99.80
2019-03-13T23:03:23.282Z,99.80
2019-03-13T23:05:52.558Z,99.80
2019-03-13T23:08:22.500Z,99.80
2019-03-13T23:10:51.790Z,99.80
2019-03-13T23:13:20.937Z,99.80
2019-03-13T23:15:50.227Z,99.80
2019-03-13T23:18:19.362Z,99.80
2019-03-13T23:20:48.852Z,99.80
2019-03-13T23:23:18.416Z,99.80
2019-03-13T23:25:47.999Z,99.80
2019-03-13T23:28:17.638Z,99.80
2019-03-13T23:30:46.838Z,99.80
2019-03-13T23:33:16.419Z,99.80
2019-03-13T23:35:48.255Z,99.80
2019-03-13T23:38:17.825Z,99.80
2019-03-13T23:40:47.017Z,99.80
2019-03-13T23:43:16.292Z,99.80
2019-03-13T23:45:45.883Z,99.80
2019-03-13T23:48:16.276Z,99.80
2019-03-13T23:50:45.503Z,99.80
2019-03-13T23:53:14.700Z,99.80
2019-03-13T23:55:43.843Z,99.80
2019-03-13T23:58:13.014Z,99.80
